Time;durP1;ratioP1;P1;durP2;ratioP2;P2;SDS_P1;SDS_P2;PMS_P1;PMS_P2;Temp;Humidity;BMP_temperature;BMP_pressure;BME280_temperature;BME280_humidity;BME280_pressure;Samples;Min_cycle;Max_cycle;Signal;HPM_P1;HPM_P2
2023/03/14 00:02:08;;;;;;;;;;;;;;;22.78;23.85;98277.88;4901229;29;1232;-74
2023/03/14 00:04:34;;;;;;;;;;;;;;;22.34;24.52;98268.09;4918006;29;922;-74
2023/03/14 00:06:59;;;;;;;;;;;;;;;22.90;23.51;98267.03;4902237;29;1283;-74
2023/03/14 00:09:26;;;;;;;;;;;;;;;23.34;23.24;98266.19;4932482;29;983;-74
2023/03/14 00:11:52;;;;;;;;;;;;;;;22.61;24.30;98270.63;4937233;29;987;-73
2023/03/14 00:14:18;;;;;;;;;;;;;;;23.00;23.51;98266.78;4921592;29;1907;-74
2023/03/14 00:16:45;;;;;;;;;;;;;;;23.03;23.58;98259.41;4934772;29;1158;-74
2023/03/14 00:19:11;;;;;;;;;;;;;;;22.62;23.95;98258.03;4924414;29;1238;-73
2023/03/14 00:21:36;;;;;;;;;;;;;;;22.76;23.67;98252.00;4924216;29;1470;-74
2023/03/14 00:24:02;;;;;;;;;;;;;;;22.92;23.80;98253.22;4924289;29;1369;-74
2023/03/14 00:26:27;;;;;;;;;;;;;;;22.77;24.06;98253.59;4924826;29;1315;-73
2023/03/14 00:28:53;;;;;;;;;;;;;;;22.48;24.39;98245.03;4939870;29;1060;-73
2023/03/14 00:31:19;;;;;;;;;;;;;;;23.07;23.44;98237.38;4939951;29;1145;-74
2023/03/14 00:33:44;;;;;;;;;;;;;;;22.47;24.30;98228.47;4969724;28;1034;-73
2023/03/14 00:36:11;;;;;;;;;;;;;;;22.98;23.74;98223.06;4979671;28;1996;-73
2023/03/14 00:38:37;;;;;;;;;;;;;;;23.06;23.49;98207.41;4963342;28;1114;-74
2023/03/14 00:41:04;;;;;;;;;;;;;;;22.80;23.87;98212.19;4995956;28;1285;-73
2023/03/14 00:43:30;;;;;;;;;;;;;;;23.03;23.71;98202.63;4995860;28;996;-74
2023/03/14 00:45:56;;;;;;;;;;;;;;;23.31;23.15;98210.31;4963585;28;1124;-74
2023/03/14 00:48:25;;;;;;;;;;;;;;;22.59;23.97;98205.06;4996864;28;966;-74
2023/03/14 00:50:51;;;;;;;;;;;;;;;22.90;23.50;98198.94;4994112;28;1468;-74
2023/03/14 00:53:17;;;;;;;;;;;;;;;22.57;23.98;98199.81;4994118;28;1033;-73
2023/03/14 00:55:44;;;;;;;;;;;;;;;22.90;24.04;98187.59;4978159;28;1971;-73
2023/03/14 00:58:10;;;;;;;;;;;;;;;22.59;24.23;98185.22;4962088;28;1643;-73
2023/03/14 01:00:35;;;;;;;;;;;;;;;22.75;24.18;98178.69;4977881;28;1255;-74
2023/03/14 01:03:01;;;;;;;;;;;;;;;22.01;25.29;98190.75;4977930;28;1310;-73
2023/03/14 01:05:27;;;;;;;;;;;;;;;22.63;24.22;98191.56;4961727;28;1405;-74
2023/03/14 01:07:52;;;;;;;;;;;;;;;23.29;23.32;98192.91;4977847;28;1175;-74
2023/03/14 01:10:18;;;;;;;;;;;;;;;23.34;23.54;98195.19;4994291;28;987;-74
2023/03/14 01:12:43;;;;;;;;;;;;;;;22.12;24.84;98185.63;4977383;28;1199;-73
2023/03/14 01:15:09;;;;;;;;;;;;;;;22.48;24.59;98190.38;4993908;28;1994;-74
2023/03/14 01:17:34;;;;;;;;;;;;;;;22.32;24.55;98194.03;4961621;28;1248;-73
2023/03/14 01:20:00;;;;;;;;;;;;;;;23.24;23.40;98190.63;4977820;28;2128;-74
2023/03/14 01:22:26;;;;;;;;;;;;;;;23.16;23.46;98194.97;4975608;28;1195;-73
2023/03/14 01:24:51;;;;;;;;;;;;;;;22.93;23.80;98183.88;4975678;28;1074;-74
2023/03/14 01:27:17;;;;;;;;;;;;;;;22.99;23.72;98185.69;4977525;28;1242;-74
2023/03/14 01:29:42;;;;;;;;;;;;;;;22.76;23.74;98186.75;4993811;28;1203;-74
2023/03/14 01:32:08;;;;;;;;;;;;;;;22.50;24.00;98179.38;4977881;28;1266;-74
2023/03/14 01:34:34;;;;;;;;;;;;;;;22.54;24.24;98180.09;4961778;28;1902;-74
2023/03/14 01:36:59;;;;;;;;;;;;;;;22.72;24.42;98193.75;4961488;28;1258;-74
2023/03/14 01:39:25;;;;;;;;;;;;;;;22.60;24.17;98186.81;4961443;28;1129;-74
2023/03/14 01:41:50;;;;;;;;;;;;;;;23.03;23.84;98185.59;4977522;28;1359;-73
2023/03/14 01:44:16;;;;;;;;;;;;;;;22.81;23.97;98185.41;4977429;28;1336;-73
2023/03/14 01:46:42;;;;;;;;;;;;;;;22.44;24.43;98187.66;4977588;28;1085;-74
2023/03/14 01:49:09;;;;;;;;;;;;;;;22.68;24.10;98193.84;4961569;28;1139;-74
2023/03/14 01:51:41;;;;;;;;;;;;;;;22.58;24.32;98190.06;4977391;28;1430;-74
2023/03/14 01:54:26;;;;;;;;;;;;;;;23.15;23.78;98193.34;4961324;28;1311;-73
2023/03/14 01:56:53;;;;;;;;;;;;;;;23.28;23.24;98179.97;4916471;29;1054;-74
2023/03/14 01:59:19;;;;;;;;;;;;;;;23.52;22.91;98176.78;4885817;29;1248;-74
2023/03/14 02:01:45;;;;;;;;;;;;;;;23.02;23.89;98176.28;4900793;29;970;-74
2023/03/14 02:04:10;;;;;;;;;;;;;;;23.10;23.29;98162.69;4916642;29;1141;-74
2023/03/14 02:06:45;;;;;;;;;;;;;;;23.00;23.68;98180.81;4916677;29;1505;-73
2023/03/14 02:09:11;;;;;;;;;;;;;;;23.07;23.56;98184.25;4900665;29;1060;-74
2023/03/14 02:11:37;;;;;;;;;;;;;;;22.79;23.85;98177.31;4916453;29;1244;-73
2023/03/14 02:14:15;;;;;;;;;;;;;;;22.89;23.90;98183.97;4902179;29;1914;-74
2023/03/14 02:17:04;;;;;;;;;;;;;;;22.81;23.76;98186.19;4903977;29;1032;-73
2023/03/14 02:20:35;;;;;;;;;;;;;;;22.69;24.00;98184.13;4904359;29;1335;-73
2023/03/14 02:23:00;;;;;;;;;;;;;;;22.19;25.01;98185.47;4844851;29;1072;-73
2023/03/14 02:25:43;;;;;;;;;;;;;;;23.10;23.87;98185.38;4847678;29;1256;-73
2023/03/14 02:28:08;;;;;;;;;;;;;;;22.30;24.90;98191.66;4832933;29;1162;-74
2023/03/14 02:30:36;;;;;;;;;;;;;;;23.24;23.52;98190.63;4848607;29;1306;-74
2023/03/14 02:33:04;;;;;;;;;;;;;;;22.92;24.20;98196.47;4848187;29;1058;-74
2023/03/14 02:35:33;;;;;;;;;;;;;;;23.37;23.34;98207.72;4848199;29;1986;-74
2023/03/14 02:38:20;;;;;;;;;;;;;;;23.21;23.39;98207.78;4848335;29;1385;-74
2023/03/14 02:40:47;;;;;;;;;;;;;;;22.78;24.07;98192.75;4865163;29;1100;-73
2023/03/14 02:43:13;;;;;;;;;;;;;;;23.07;23.65;98200.50;4900927;29;1065;-74
2023/03/14 02:45:44;;;;;;;;;;;;;;;22.93;24.02;98198.84;4900491;29;1272;-73
2023/03/14 02:48:18;;;;;;;;;;;;;;;22.79;23.84;98200.03;4900572;29;1258;-73
2023/03/14 02:50:45;;;;;;;;;;;;;;;22.68;24.17;98196.69;4900586;29;1244;-73
2023/03/14 02:53:12;;;;;;;;;;;;;;;22.87;23.69;98190.06;4919483;28;1321;-73
2023/03/14 02:55:37;;;;;;;;;;;;;;;22.93;23.63;98198.06;4977219;28;1911;-73
2023/03/14 02:58:09;;;;;;;;;;;;;;;22.64;24.08;98193.19;4963371;28;1221;-74
2023/03/14 03:00:35;;;;;;;;;;;;;;;22.92;24.00;98197.28;4978039;28;1135;-74
2023/03/14 03:03:05;;;;;;;;;;;;;;;22.35;24.59;98193.94;4953663;29;1217;-74
2023/03/14 03:05:31;;;;;;;;;;;;;;;22.36;24.66;98194.75;4938277;29;1198;-74
2023/03/14 03:07:56;;;;;;;;;;;;;;;22.89;23.94;98186.81;4922374;29;1194;-73
2023/03/14 03:10:23;;;;;;;;;;;;;;;22.80;24.20;98190.28;4922318;29;1202;-74
2023/03/14 03:12:49;;;;;;;;;;;;;;;22.76;24.05;98183.91;4906692;29;1418;-74
2023/03/14 03:15:14;;;;;;;;;;;;;;;22.99;23.74;98190.59;4922182;29;1985;-73
2023/03/14 03:17:40;;;;;;;;;;;;;;;22.63;24.53;98186.69;4922261;29;1257;-73
2023/03/14 03:20:08;;;;;;;;;;;;;;;23.19;23.74;98188.34;4937927;29;1637;-74
2023/03/14 03:22:34;;;;;;;;;;;;;;;23.12;23.88;98182.91;4922696;29;991;-74
2023/03/14 03:25:01;;;;;;;;;;;;;;;23.32;23.39;98180.66;4937938;29;1642;-74
2023/03/14 03:27:30;;;;;;;;;;;;;;;23.00;23.67;98169.47;4922622;29;1314;-74
2023/03/14 03:29:55;;;;;;;;;;;;;;;22.71;24.35;98163.81;4938122;29;983;-73
2023/03/14 03:32:21;;;;;;;;;;;;;;;22.97;23.91;98164.72;4937499;29;1166;-74
2023/03/14 03:34:46;;;;;;;;;;;;;;;22.60;23.93;98164.91;4953391;29;1911;-74
2023/03/14 03:37:12;;;;;;;;;;;;;;;22.91;23.95;98161.63;4953579;29;1123;-74
2023/03/14 03:39:40;;;;;;;;;;;;;;;22.81;23.95;98157.81;4943333;28;1303;-74
2023/03/14 03:42:05;;;;;;;;;;;;;;;22.96;23.88;98168.81;4959892;28;1097;-74
2023/03/14 03:44:31;;;;;;;;;;;;;;;22.74;24.20;98162.91;4944027;28;1165;-73
2023/03/14 03:46:56;;;;;;;;;;;;;;;22.27;24.66;98164.19;4943864;28;1274;-74
2023/03/14 03:49:22;;;;;;;;;;;;;;;22.65;24.20;98149.38;4943927;28;1193;-74
2023/03/14 03:51:48;;;;;;;;;;;;;;;22.29;24.57;98150.38;4943832;28;1426;-73
2023/03/14 03:54:13;;;;;;;;;;;;;;;22.55;24.42;98151.28;4943525;28;1914;-74
2023/03/14 03:56:39;;;;;;;;;;;;;;;23.11;23.84;98158.63;4943708;28;1145;-73
2023/03/14 03:59:05;;;;;;;;;;;;;;;22.69;24.01;98163.44;4943767;28;1241;-74
2023/03/14 04:01:31;;;;;;;;;;;;;;;23.22;23.44;98147.72;4971655;28;952;-73
2023/03/14 04:03:58;;;;;;;;;;;;;;;22.83;23.99;98157.38;4975350;28;1187;-73
2023/03/14 04:06:24;;;;;;;;;;;;;;;23.25;23.36;98155.31;4943706;28;1298;-74
2023/03/14 04:08:53;;;;;;;;;;;;;;;23.25;23.69;98161.00;4943769;28;1487;-74
2023/03/14 04:11:30;;;;;;;;;;;;;;;23.27;23.39;98161.34;4944924;28;1352;-73
2023/03/14 04:14:14;;;;;;;;;;;;;;;23.16;23.45;98163.72;4936649;29;1919;-73
2023/03/14 04:16:40;;;;;;;;;;;;;;;22.73;23.99;98156.44;4937355;29;1141;-74
2023/03/14 04:19:11;;;;;;;;;;;;;;;22.45;24.24;98160.09;4936772;29;1243;-73
2023/03/14 04:21:40;;;;;;;;;;;;;;;22.47;24.61;98154.75;4905348;29;1116;-74
2023/03/14 04:24:09;;;;;;;;;;;;;;;22.51;24.48;98155.44;4921347;29;1083;-73
2023/03/14 04:26:34;;;;;;;;;;;;;;;22.74;24.18;98155.22;4917598;29;1073;-74
2023/03/14 04:29:00;;;;;;;;;;;;;;;22.63;24.28;98160.38;4901945;29;1264;-73
2023/03/14 04:31:26;;;;;;;;;;;;;;;22.70;24.42;98160.19;4901706;29;1516;-74
2023/03/14 04:33:51;;;;;;;;;;;;;;;22.93;23.98;98164.00;4885983;29;1410;-73
2023/03/14 04:36:23;;;;;;;;;;;;;;;22.36;24.79;98161.50;4886908;29;1986;-74
2023/03/14 04:38:49;;;;;;;;;;;;;;;22.81;24.06;98160.66;4893307;29;1982;-73
2023/03/14 04:41:18;;;;;;;;;;;;;;;23.14;23.61;98157.69;4932598;29;1816;-74
2023/03/14 04:43:43;;;;;;;;;;;;;;;23.09;23.96;98156.22;4905369;29;1254;-73
2023/03/14 04:46:10;;;;;;;;;;;;;;;23.17;23.60;98156.00;4939537;29;1251;-74
2023/03/14 04:48:37;;;;;;;;;;;;;;;23.06;23.82;98150.66;4955340;28;1126;-74
2023/03/14 04:51:04;;;;;;;;;;;;;;;23.05;23.95;98144.19;4939529;29;1354;-74
2023/03/14 04:53:32;;;;;;;;;;;;;;;22.80;23.96;98156.25;4898595;29;1134;-74
2023/03/14 04:55:58;;;;;;;;;;;;;;;22.82;23.80;98141.59;4897786;29;1907;-74
2023/03/14 04:58:30;;;;;;;;;;;;;;;22.38;24.45;98146.09;4935524;29;1252;-74
2023/03/14 05:01:01;;;;;;;;;;;;;;;22.42;24.55;98141.13;4924035;29;1125;-74
2023/03/14 05:03:32;;;;;;;;;;;;;;;22.30;24.75;98151.97;4939927;29;1044;-74
2023/03/14 05:06:18;;;;;;;;;;;;;;;22.31;25.10;98147.88;4954258;29;1858;-74
2023/03/14 05:09:04;;;;;;;;;;;;;;;22.69;24.43;98152.09;4955199;29;948;-74
2023/03/14 05:11:36;;;;;;;;;;;;;;;22.47;24.67;98152.72;4955360;29;970;-74
2023/03/14 05:14:19;;;;;;;;;;;;;;;23.16;23.81;98160.91;4914683;29;1918;-73
2023/03/14 05:16:57;;;;;;;;;;;;;;;23.01;23.93;98154.06;4955344;29;977;-74
2023/03/14 05:19:42;;;;;;;;;;;;;;;22.93;24.11;98159.13;4915245;29;1518;-74
2023/03/14 05:22:35;;;;;;;;;;;;;;;22.84;24.22;98156.91;4915278;29;1544;-73
2023/03/14 05:25:19;;;;;;;;;;;;;;;22.61;24.22;98163.66;4965331;28;1033;-74
2023/03/14 05:27:59;;;;;;;;;;;;;;;22.60;24.49;98166.94;4960146;28;980;-74
2023/03/14 05:30:38;;;;;;;;;;;;;;;22.49;24.69;98169.28;4974490;28;1137;-74
2023/03/14 05:33:22;;;;;;;;;;;;;;;22.56;24.49;98169.09;4944759;28;1088;-73
2023/03/14 05:36:07;;;;;;;;;;;;;;;22.57;24.37;98165.78;4944800;28;1914;-74
2023/03/14 05:38:50;;;;;;;;;;;;;;;22.41;24.87;98162.22;4964099;28;1515;-74
2023/03/14 05:41:39;;;;;;;;;;;;;;;22.80;24.17;98161.91;4916695;29;1039;-74
2023/03/14 05:44:43;;;;;;;;;;;;;;;22.88;23.83;98160.47;4879101;29;1060;-74
2023/03/14 05:47:23;;;;;;;;;;;;;;;23.17;23.58;98161.69;4842462;29;1313;-74
2023/03/14 05:50:07;;;;;;;;;;;;;;;23.00;23.71;98149.59;4808873;29;1556;-74
2023/03/14 05:52:42;;;;;;;;;;;;;;;23.18;23.53;98147.03;4805834;29;1078;-74
2023/03/14 05:55:34;;;;;;;;;;;;;;;22.74;24.20;98152.38;4823654;29;1900;-74
2023/03/14 05:58:19;;;;;;;;;;;;;;;23.19;23.46;98154.28;4826973;29;1078;-74
2023/03/14 06:01:03;;;;;;;;;;;;;;;22.70;24.65;98151.69;4845432;29;968;-74
2023/03/14 06:03:43;;;;;;;;;;;;;;;22.90;23.96;98159.22;4845530;29;1258;-74
2023/03/14 06:06:09;;;;;;;;;;;;;;;23.06;23.70;98150.66;4844323;29;1384;-73
2023/03/14 06:08:34;;;;;;;;;;;;;;;22.91;23.87;98152.31;4830151;29;1366;-74
2023/03/14 06:11:02;;;;;;;;;;;;;;;22.92;23.93;98162.44;4830212;29;1205;-74
2023/03/14 06:13:29;;;;;;;;;;;;;;;22.80;24.18;98156.25;4830078;29;1123;-74
2023/03/14 06:15:55;;;;;;;;;;;;;;;22.73;24.25;98156.44;4829885;29;1960;-74
2023/03/14 06:18:20;;;;;;;;;;;;;;;22.48;24.73;98164.84;4816855;29;1560;-74
2023/03/14 06:20:46;;;;;;;;;;;;;;;22.27;24.85;98169.06;4892000;29;1693;-74
2023/03/14 06:23:20;;;;;;;;;;;;;;;22.32;24.85;98172.16;4920293;29;1453;-74
2023/03/14 06:25:46;;;;;;;;;;;;;;;22.75;24.26;98159.63;4844965;29;1108;-74
2023/03/14 06:28:11;;;;;;;;;;;;;;;22.94;24.17;98171.28;4815100;29;1312;-74
2023/03/14 06:30:37;;;;;;;;;;;;;;;22.74;24.22;98163.72;4829833;29;1112;-74
2023/03/14 06:33:03;;;;;;;;;;;;;;;23.17;23.69;98156.00;4875963;29;1446;-74
2023/03/14 06:35:28;;;;;;;;;;;;;;;22.73;24.41;98156.44;4904108;29;1910;-73
2023/03/14 06:37:54;;;;;;;;;;;;;;;23.20;23.75;98161.56;4888725;29;1178;-74
2023/03/14 06:40:19;;;;;;;;;;;;;;;23.62;22.88;98152.94;4888367;29;1298;-74
2023/03/14 06:42:53;;;;;;;;;;;;;;;23.12;23.84;98158.16;4889401;29;1138;-74
2023/03/14 06:45:20;;;;;;;;;;;;;;;23.00;23.87;98158.13;4888359;29;1314;-73
2023/03/14 06:47:46;;;;;;;;;;;;;;;22.85;24.18;98150.00;4888082;29;1675;-74
2023/03/14 06:50:13;;;;;;;;;;;;;;;23.06;23.85;98150.66;4888118;29;1268;-73
2023/03/14 06:52:47;;;;;;;;;;;;;;;22.85;23.95;98146.38;4872940;29;1297;-73
2023/03/14 06:55:15;;;;;;;;;;;;;;;22.58;24.36;98143.91;4889388;29;1907;-74
2023/03/14 06:57:41;;;;;;;;;;;;;;;22.70;24.26;98140.31;4936537;29;1158;-74
2023/03/14 07:00:28;;;;;;;;;;;;;;;22.68;24.40;98139.97;4958728;29;1373;-74
2023/03/14 07:02:54;;;;;;;;;;;;;;;22.30;24.78;98140.63;4966917;28;1479;-74
2023/03/14 07:05:25;;;;;;;;;;;;;;;22.30;24.97;98137.78;4964728;28;1128;-74
2023/03/14 07:07:51;;;;;;;;;;;;;;;22.50;24.79;98136.84;4963814;28;1089;-73
2023/03/14 07:10:17;;;;;;;;;;;;;;;22.29;24.94;98138.25;4963567;28;1254;-73
2023/03/14 07:12:42;;;;;;;;;;;;;;;22.85;24.18;98129.38;4959216;28;1587;-73
2023/03/14 07:15:08;;;;;;;;;;;;;;;23.02;23.98;98132.94;4944622;28;1980;-74
2023/03/14 07:17:33;;;;;;;;;;;;;;;22.76;24.33;98121.50;4960354;28;1243;-74
2023/03/14 07:20:00;;;;;;;;;;;;;;;22.81;24.35;98132.28;4944393;28;1148;-73
2023/03/14 07:22:26;;;;;;;;;;;;;;;23.01;23.90;98131.34;4960636;28;1158;-74
2023/03/14 07:24:51;;;;;;;;;;;;;;;23.02;24.02;98130.91;4960299;28;1246;-74
2023/03/14 07:27:19;;;;;;;;;;;;;;;22.71;24.26;98133.41;4968171;28;1436;-74
2023/03/14 07:29:47;;;;;;;;;;;;;;;22.90;24.23;98136.53;4979455;28;1484;-74
2023/03/14 07:32:14;;;;;;;;;;;;;;;23.12;23.96;98137.50;4947483;28;1255;-73
2023/03/14 07:34:43;;;;;;;;;;;;;;;22.92;24.16;98128.38;4977124;28;1989;-74
2023/03/14 07:37:09;;;;;;;;;;;;;;;22.90;24.20;98125.19;4996978;28;1199;-74
2023/03/14 07:39:34;;;;;;;;;;;;;;;22.92;24.00;98125.53;4996686;28;1164;-73
2023/03/14 07:42:11;;;;;;;;;;;;;;;22.78;24.38;98118.22;4960064;28;1485;-73
2023/03/14 07:44:39;;;;;;;;;;;;;;;22.75;24.55;98124.81;4960456;28;1085;-73
2023/03/14 07:47:05;;;;;;;;;;;;;;;22.71;24.28;98124.09;4960192;28;1074;-74
2023/03/14 07:49:30;;;;;;;;;;;;;;;22.74;24.35;98101.31;4959737;28;1111;-74
2023/03/14 07:51:56;;;;;;;;;;;;;;;23.09;23.91;98110.00;4959941;28;955;-74
2023/03/14 07:54:22;;;;;;;;;;;;;;;22.58;24.71;98109.88;4927890;28;1773;-74
2023/03/14 07:56:48;;;;;;;;;;;;;;;22.93;24.32;98101.59;4943375;28;1390;-73
2023/03/14 07:59:13;;;;;;;;;;;;;;;22.62;24.51;98110.56;4959730;28;1025;-74
2023/03/14 08:01:39;;;;;;;;;;;;;;;23.14;23.79;98100.94;4975863;28;982;-74
2023/03/14 08:04:04;;;;;;;;;;;;;;;22.49;24.49;98095.56;4959411;28;1198;-73
2023/03/14 08:06:30;;;;;;;;;;;;;;;23.09;24.01;98092.97;4943300;28;1230;-74
2023/03/14 08:08:55;;;;;;;;;;;;;;;22.80;24.19;98096.66;4975598;28;1030;-74
2023/03/14 08:11:21;;;;;;;;;;;;;;;23.26;23.67;98088.81;4962624;28;1355;-74
2023/03/14 08:13:49;;;;;;;;;;;;;;;22.67;24.42;98090.16;4969049;28;995;-74
2023/03/14 08:16:18;;;;;;;;;;;;;;;22.83;24.09;98086.44;4994911;28;1906;-73
2023/03/14 08:18:45;;;;;;;;;;;;;;;22.75;24.15;98088.72;4962883;28;1039;-74
2023/03/14 08:21:10;;;;;;;;;;;;;;;22.98;23.99;98081.16;4962369;28;1201;-74
2023/03/14 08:23:36;;;;;;;;;;;;;;;22.88;24.23;98083.06;4980916;28;1403;-74
2023/03/14 08:26:01;;;;;;;;;;;;;;;22.62;24.65;98082.22;4995008;28;1057;-74
2023/03/14 08:28:30;;;;;;;;;;;;;;;22.87;24.30;98081.47;4978374;28;966;-74
2023/03/14 08:30:58;;;;;;;;;;;;;;;22.87;24.08;98082.25;4994859;28;1026;-73
2023/03/14 08:33:24;;;;;;;;;;;;;;;23.03;24.04;98077.75;4978224;28;995;-74
2023/03/14 08:35:53;;;;;;;;;;;;;;;22.82;24.23;98073.50;4976088;28;1903;-74
2023/03/14 08:38:18;;;;;;;;;;;;;;;23.11;23.77;98073.47;4986677;28;1439;-73
2023/03/14 08:40:44;;;;;;;;;;;;;;;23.22;23.66;98068.25;4942254;28;1648;-74
2023/03/14 08:43:09;;;;;;;;;;;;;;;22.70;24.43;98063.75;4975021;28;1389;-74
2023/03/14 08:45:35;;;;;;;;;;;;;;;22.85;24.20;98062.06;4958902;28;1310;-74
2023/03/14 08:48:00;;;;;;;;;;;;;;;23.26;23.84;98051.91;4958881;28;1109;-74
2023/03/14 08:50:26;;;;;;;;;;;;;;;23.08;23.77;98058.13;4975212;28;1488;-74
2023/03/14 08:52:52;;;;;;;;;;;;;;;22.84;24.23;98054.78;4947615;28;2887;-73
2023/03/14 08:55:17;;;;;;;;;;;;;;;23.03;24.08;98061.53;4957631;28;1938;-74
2023/03/14 08:57:43;;;;;;;;;;;;;;;22.94;23.96;98052.09;4968900;28;2135;-74
2023/03/14 09:00:12;;;;;;;;;;;;;;;23.12;23.79;98047.47;4916893;29;1153;-74
2023/03/14 09:02:37;;;;;;;;;;;;;;;22.68;24.38;98054.88;4917408;29;1214;-74
2023/03/14 09:05:03;;;;;;;;;;;;;;;22.92;23.98;98048.94;4901484;29;973;-74
2023/03/14 09:07:29;;;;;;;;;;;;;;;22.74;24.37;98050.25;4884779;29;1748;-74
2023/03/14 09:09:54;;;;;;;;;;;;;;;22.85;24.20;98039.38;4917031;29;1895;-74
2023/03/14 09:12:20;;;;;;;;;;;;;;;22.94;24.14;98035.88;4934819;29;1806;-74
2023/03/14 09:14:45;;;;;;;;;;;;;;;22.90;24.19;98040.06;4939354;29;1899;-74
2023/03/14 09:17:11;;;;;;;;;;;;;;;22.49;24.68;98038.88;4925060;28;1344;-74
2023/03/14 09:19:36;;;;;;;;;;;;;;;22.56;24.54;98027.28;4955384;29;983;-73
2023/03/14 09:22:02;;;;;;;;;;;;;;;22.69;24.47;98030.97;4939356;29;1034;-74
2023/03/14 09:24:28;;;;;;;;;;;;;;;23.14;23.76;98029.97;4938620;29;2020;-74
2023/03/14 09:26:54;;;;;;;;;;;;;;;22.57;24.82;98028.88;4955286;29;952;-73
2023/03/14 09:29:20;;;;;;;;;;;;;;;22.98;24.03;98018.75;4923257;29;1198;-74
2023/03/14 09:31:45;;;;;;;;;;;;;;;22.88;24.40;98020.66;4966231;28;1105;-74
2023/03/14 09:34:11;;;;;;;;;;;;;;;23.35;23.53;98026.41;4979059;28;1048;-74
2023/03/14 09:36:38;;;;;;;;;;;;;;;23.29;23.95;98025.41;4979429;28;1914;-74
2023/03/14 09:39:04;;;;;;;;;;;;;;;23.22;23.66;98016.34;4994277;28;1653;-74
2023/03/14 09:41:33;;;;;;;;;;;;;;;22.65;24.36;98013.25;4999153;28;936;-73
2023/03/14 09:44:03;;;;;;;;;;;;;;;22.85;24.28;98015.88;4982465;28;911;-73
2023/03/14 09:46:29;;;;;;;;;;;;;;;22.77;24.30;98020.19;4982729;28;1627;-74
2023/03/14 09:48:54;;;;;;;;;;;;;;;22.83;24.31;98024.81;4957913;29;1875;-74
2023/03/14 09:51:22;;;;;;;;;;;;;;;22.83;24.21;98016.31;4942804;29;1217;-73
2023/03/14 09:53:47;;;;;;;;;;;;;;;22.62;24.62;98014.13;4925811;29;1801;-74
2023/03/14 09:56:17;;;;;;;;;;;;;;;22.56;24.60;98010.28;4928114;29;1988;-74
2023/03/14 09:58:44;;;;;;;;;;;;;;;22.70;24.56;98001.34;4940425;29;1200;-74
2023/03/14 10:01:10;;;;;;;;;;;;;;;22.67;24.61;97998.59;4939280;29;1005;-75
2023/03/14 10:03:36;;;;;;;;;;;;;;;22.83;24.34;97996.44;4951887;29;1234;-74
2023/03/14 10:06:01;;;;;;;;;;;;;;;23.28;23.84;97992.59;4945297;29;1684;-74
2023/03/14 10:08:27;;;;;;;;;;;;;;;23.33;23.54;97982.72;4958545;28;1231;-74
2023/03/14 10:10:53;;;;;;;;;;;;;;;23.28;23.71;97986.13;4958285;29;1034;-74
2023/03/14 10:13:26;;;;;;;;;;;;;;;22.85;24.46;97988.31;4923317;29;2060;-73
2023/03/14 10:15:53;;;;;;;;;;;;;;;22.92;24.08;97980.84;4937570;29;2145;-74
2023/03/14 10:18:18;;;;;;;;;;;;;;;22.66;24.51;97980.81;4923150;29;913;-74
2023/03/14 10:20:45;;;;;;;;;;;;;;;22.33;25.10;97975.31;4939632;29;1118;-74
2023/03/14 10:23:10;;;;;;;;;;;;;;;22.38;25.08;97970.31;4958010;29;1078;-73
2023/03/14 10:25:38;;;;;;;;;;;;;;;22.48;24.96;97974.88;4958111;29;1106;-74
2023/03/14 10:28:04;;;;;;;;;;;;;;;22.29;25.31;97980.31;4941212;29;1706;-74
2023/03/14 10:30:44;;;;;;;;;;;;;;;21.67;25.86;97979.59;4900853;29;1669;-74
2023/03/14 10:33:11;;;;;;;;;;;;;;;22.05;25.46;97964.78;4885480;29;1066;-74
2023/03/14 10:35:36;;;;;;;;;;;;;;;22.44;24.87;97968.53;4885878;29;1974;-73
2023/03/14 10:38:02;;;;;;;;;;;;;;;22.79;24.30;97953.22;4900662;29;1084;-73
2023/03/14 10:40:29;;;;;;;;;;;;;;;22.91;24.15;97956.56;4885318;29;1007;-74
2023/03/14 10:42:55;;;;;;;;;;;;;;;23.14;23.93;97947.66;4889471;29;2038;-74
2023/03/14 10:45:33;;;;;;;;;;;;;;;23.27;23.59;97934.25;4918988;29;965;-74
2023/03/14 10:48:17;;;;;;;;;;;;;;;23.26;23.54;97926.97;4919469;29;983;-73
2023/03/14 10:51:08;;;;;;;;;;;;;;;23.26;23.71;97932.66;4912975;29;1029;-74
2023/03/14 10:53:38;;;;;;;;;;;;;;;23.02;23.91;97917.25;4900388;29;962;-74
2023/03/14 10:56:04;;;;;;;;;;;;;;;23.02;24.00;97912.38;4900810;29;1910;-74
2023/03/14 10:58:30;;;;;;;;;;;;;;;22.90;24.14;97920.91;4911878;29;1812;-74
2023/03/14 11:01:05;;;;;;;;;;;;;;;22.71;24.40;97914.22;4914129;29;1226;-74
2023/03/14 11:03:32;;;;;;;;;;;;;;;22.74;24.27;97908.44;4941497;29;1140;-73
2023/03/14 11:06:10;;;;;;;;;;;;;;;23.02;24.15;97900.25;4941797;29;1082;-74
2023/03/14 11:08:42;;;;;;;;;;;;;;;22.91;24.35;97886.41;4925315;29;1009;-73
2023/03/14 11:11:27;;;;;;;;;;;;;;;22.77;24.29;97873.47;4925633;29;1389;-74
2023/03/14 11:14:13;;;;;;;;;;;;;;;23.04;23.78;97869.34;4955913;29;1819;-74
2023/03/14 11:16:56;;;;;;;;;;;;;;;22.20;25.22;97877.34;4941083;29;1914;-74
2023/03/14 11:19:27;;;;;;;;;;;;;;;22.76;24.27;97860.53;4956983;29;1147;-73
2023/03/14 11:21:53;;;;;;;;;;;;;;;22.53;24.74;97863.72;4956910;29;1003;-74
2023/03/14 11:24:37;;;;;;;;;;;;;;;23.22;23.87;97849.66;4957359;29;986;-74
2023/03/14 11:27:14;;;;;;;;;;;;;;;22.77;24.26;97833.75;4956351;29;1831;-74
2023/03/14 11:29:40;;;;;;;;;;;;;;;23.00;23.81;97837.47;4956368;29;1873;-74
2023/03/14 11:32:12;;;;;;;;;;;;;;;22.82;23.96;97830.34;4940979;29;1000;-74
2023/03/14 11:34:53;;;;;;;;;;;;;;;22.87;23.84;97821.25;4940959;29;1980;-73
2023/03/14 11:37:28;;;;;;;;;;;;;;;23.06;23.75;97818.63;4925077;29;1108;-73
2023/03/14 11:40:00;;;;;;;;;;;;;;;22.79;24.30;97814.22;4924859;29;1059;-74
2023/03/14 11:42:25;;;;;;;;;;;;;;;22.81;24.30;97811.72;4925278;29;1240;-73
2023/03/14 11:44:51;;;;;;;;;;;;;;;22.81;23.99;97817.41;4937140;28;1910;-74
2023/03/14 11:47:19;;;;;;;;;;;;;;;22.70;24.30;97793.50;4960189;28;968;-74
2023/03/14 11:49:53;;;;;;;;;;;;;;;22.49;24.49;97800.69;4966598;28;1016;-74
2023/03/14 11:52:30;;;;;;;;;;;;;;;22.67;24.39;97789.53;4980510;28;1091;-74
2023/03/14 11:54:57;;;;;;;;;;;;;;;22.45;24.62;97788.66;4980338;28;1887;-74
2023/03/14 11:57:24;;;;;;;;;;;;;;;22.92;24.21;97788.69;4995802;28;1890;-73
2023/03/14 12:00:09;;;;;;;;;;;;;;;22.42;24.48;97783.91;4996664;28;1119;-74
2023/03/14 12:02:39;;;;;;;;;;;;;;;23.01;23.86;97774.59;5002429;28;1093;-74
2023/03/14 12:05:24;;;;;;;;;;;;;;;22.74;24.25;97775.13;4999459;28;1405;-73
2023/03/14 12:08:03;;;;;;;;;;;;;;;22.97;24.00;97762.56;5017159;28;887;-74
2023/03/14 12:10:29;;;;;;;;;;;;;;;22.61;24.22;97729.75;4999642;28;1111;-73
2023/03/14 12:12:55;;;;;;;;;;;;;;;23.12;23.84;97757.19;4998772;28;1969;-74
2023/03/14 12:15:21;;;;;;;;;;;;;;;23.15;23.68;97756.22;4975377;28;1981;-75
2023/03/14 12:17:46;;;;;;;;;;;;;;;22.94;23.92;97752.13;4943650;28;1003;-74
2023/03/14 12:20:12;;;;;;;;;;;;;;;22.92;23.82;97745.34;4959227;28;1224;-73
2023/03/14 12:22:42;;;;;;;;;;;;;;;22.90;23.79;97742.16;4975495;28;943;-74
2023/03/14 12:25:14;;;;;;;;;;;;;;;23.01;23.73;97734.06;4939793;29;956;-75
2023/03/14 12:27:41;;;;;;;;;;;;;;;22.66;24.15;97725.56;4939089;29;1896;-73
2023/03/14 12:30:14;;;;;;;;;;;;;;;22.09;24.94;97727.47;4940372;29;1326;-74
2023/03/14 12:32:39;;;;;;;;;;;;;;;23.01;23.78;97734.06;4940061;29;989;-74
2023/03/14 12:35:34;;;;;;;;;;;;;;;23.12;23.80;97720.28;4923913;29;1985;-73
2023/03/14 12:38:00;;;;;;;;;;;;;;;22.83;23.90;97718.44;4898884;29;1063;-73
2023/03/14 12:40:35;;;;;;;;;;;;;;;23.04;23.66;97721.78;4883325;29;919;-73
2023/03/14 12:43:01;;;;;;;;;;;;;;;23.16;23.72;97705.94;4883356;29;1160;-74
2023/03/14 12:45:33;;;;;;;;;;;;;;;23.28;23.19;97708.72;4898654;29;1026;-74
2023/03/14 12:48:09;;;;;;;;;;;;;;;23.07;23.52;97701.81;4882695;29;1092;-73
2023/03/14 12:50:36;;;;;;;;;;;;;;;23.11;23.53;97699.63;4883282;29;975;-73
2023/03/14 12:53:04;;;;;;;;;;;;;;;22.86;23.77;97692.00;4882717;29;1048;-74
2023/03/14 12:55:36;;;;;;;;;;;;;;;22.92;23.93;97692.22;4906520;29;1907;-73
2023/03/14 12:58:08;;;;;;;;;;;;;;;22.54;24.19;97689.53;4936151;29;981;-74
2023/03/14 13:00:34;;;;;;;;;;;;;;;22.82;24.03;97682.03;4936171;29;977;-74
2023/03/14 13:03:12;;;;;;;;;;;;;;;22.33;24.27;97674.84;4936008;29;1136;-74
2023/03/14 13:05:37;;;;;;;;;;;;;;;22.30;25.04;97670.09;4936293;29;994;-74
2023/03/14 13:08:03;;;;;;;;;;;;;;;22.92;23.92;97674.41;4919730;29;1200;-74
2023/03/14 13:10:47;;;;;;;;;;;;;;;22.88;23.77;97680.22;4932208;29;1890;-74